Time;durP1;ratioP1;P1;durP2;ratioP2;P2;SDS_P1;SDS_P2;PMS_P1;PMS_P2;Temp;Humidity;BMP_temperature;BMP_pressure;BME280_temperature;BME280_humidity;BME280_pressure;Samples;Min_cycle;Max_cycle;Signal;HPM_P1;HPM_P2
2023/08/06 00:01:25;;;;;;;;;;;;;;;23.71;48.71;100160.16;2299338;76;50333;-76
2023/08/06 00:04:26;;;;;;;;;;;;;;;23.72;48.70;100167.77;2299708;76;51726;-77
2023/08/06 00:07:28;;;;;;;;;;;;;;;23.70;48.71;100163.40;2298991;76;51555;-77
2023/08/06 00:10:30;;;;;;;;;;;;;;;23.71;48.67;100170.97;2298992;76;52598;-76
2023/08/06 00:13:31;;;;;;;;;;;;;;;23.70;48.69;100172.85;2298881;76;50277;-77
2023/08/06 00:16:33;;;;;;;;;;;;;;;23.69;48.69;100169.86;2301886;75;50630;-76
2023/08/06 00:19:34;;;;;;;;;;;;;;;23.70;48.69;100153.94;2319754;76;50236;-75
2023/08/06 00:22:36;;;;;;;;;;;;;;;23.70;48.72;100147.72;2319515;76;50708;-76
2023/08/06 00:25:38;;;;;;;;;;;;;;;23.69;48.73;100149.61;2295376;76;51542;-76
2023/08/06 00:28:40;;;;;;;;;;;;;;;23.68;48.71;100150.64;2295160;76;51594;-77
2023/08/06 00:31:41;;;;;;;;;;;;;;;23.68;48.71;100143.89;2319649;76;50377;-76
2023/08/06 00:34:43;;;;;;;;;;;;;;;23.69;48.72;100143.39;2308063;76;51156;-76
2023/08/06 00:37:44;;;;;;;;;;;;;;;23.69;48.72;100142.03;2294795;76;49938;-76
2023/08/06 00:40:46;;;;;;;;;;;;;;;23.69;48.72;100147.44;2295222;76;50325;-76
2023/08/06 00:43:48;;;;;;;;;;;;;;;23.68;48.69;100138.48;2318794;76;50435;-75
2023/08/06 00:46:49;;;;;;;;;;;;;;;23.67;48.71;100138.20;2309310;76;51684;-76
2023/08/06 00:49:51;;;;;;;;;;;;;;;23.68;48.69;100135.78;2321504;76;51615;-76
2023/08/06 00:52:52;;;;;;;;;;;;;;;23.68;48.69;100136.31;2321476;76;51541;-77
2023/08/06 00:55:54;;;;;;;;;;;;;;;23.68;48.70;100138.48;2321484;76;51430;-76
2023/08/06 00:58:56;;;;;;;;;;;;;;;23.68;48.70;100135.78;2309107;76;52641;-76
2023/08/06 01:01:57;;;;;;;;;;;;;;;23.68;48.68;100134.43;2321458;76;50708;-76
2023/08/06 01:04:59;;;;;;;;;;;;;;;23.67;48.69;100134.15;2321449;76;51544;-76
2023/08/06 01:08:08;;;;;;;;;;;;;;;23.68;48.70;100134.43;2321134;75;50631;-76
2023/08/06 01:11:28;;;;;;;;;;;;;;;23.67;48.70;100136.03;2320062;75;50795;-76
2023/08/06 01:14:40;;;;;;;;;;;;;;;23.68;48.69;100129.56;2321560;76;51543;-75
2023/08/06 01:17:42;;;;;;;;;;;;;;;23.66;48.71;100125.76;2298763;75;50435;-76
2023/08/06 01:20:43;;;;;;;;;;;;;;;23.67;48.70;100128.75;2321408;76;50656;-75
2023/08/06 01:23:45;;;;;;;;;;;;;;;23.66;48.72;100121.70;2283549;76;52477;-75
2023/08/06 01:26:52;;;;;;;;;;;;;;;23.65;48.71;100113.29;2321195;75;50440;-76
2023/08/06 01:29:57;;;;;;;;;;;;;;;23.64;48.72;100115.70;2320570;76;50712;-76
2023/08/06 01:32:59;;;;;;;;;;;;;;;23.65;48.74;100106.53;2321532;75;50545;-76
2023/08/06 01:36:01;;;;;;;;;;;;;;;23.66;48.72;100105.50;2283885;75;51154;-75
2023/08/06 01:39:02;;;;;;;;;;;;;;;23.66;48.73;100097.91;2321228;75;51670;-75
2023/08/06 01:42:04;;;;;;;;;;;;;;;23.65;48.72;100095.73;2309422;76;50014;-75
2023/08/06 01:45:07;;;;;;;;;;;;;;;23.64;48.73;100091.40;2302725;76;50177;-75
2023/08/06 01:48:09;;;;;;;;;;;;;;;23.65;48.70;100092.21;2297423;76;51668;-76
2023/08/06 01:51:10;;;;;;;;;;;;;;;23.64;48.71;100090.05;2333416;76;50644;-76
2023/08/06 01:54:12;;;;;;;;;;;;;;;23.64;48.73;100086.00;2333336;76;51471;-75
2023/08/06 01:57:14;;;;;;;;;;;;;;;23.64;48.72;100081.95;2333186;75;51563;-76
2023/08/06 02:00:15;;;;;;;;;;;;;;;23.64;48.69;100072.49;2298785;76;52343;-76
2023/08/06 02:03:17;;;;;;;;;;;;;;;23.65;48.69;100071.95;2299308;76;51558;-77
2023/08/06 02:06:18;;;;;;;;;;;;;;;23.64;48.71;100065.73;2333083;75;51441;-77
2023/08/06 02:09:20;;;;;;;;;;;;;;;23.64;48.69;100067.09;2333342;76;51419;-76
2023/08/06 02:12:22;;;;;;;;;;;;;;;23.63;48.70;100064.08;2297405;76;50888;-76
2023/08/06 02:15:23;;;;;;;;;;;;;;;23.64;48.70;100067.09;2314031;76;51527;-76
2023/08/06 02:18:25;;;;;;;;;;;;;;;23.64;48.70;100063.03;2322024;75;50225;-76
2023/08/06 02:21:26;;;;;;;;;;;;;;;23.63;48.71;100060.02;2322309;75;50292;-76
2023/08/06 02:24:28;;;;;;;;;;;;;;;23.63;48.72;100060.02;2274963;76;51035;-77
2023/08/06 02:27:29;;;;;;;;;;;;;;;23.62;48.70;100054.87;2322240;75;50265;-76
2023/08/06 02:30:31;;;;;;;;;;;;;;;23.62;48.72;100054.34;2322371;76;50455;-77
2023/08/06 02:33:33;;;;;;;;;;;;;;;23.64;48.71;100055.47;2322261;75;50660;-77
2023/08/06 02:36:34;;;;;;;;;;;;;;;23.63;48.71;100046.52;2300089;75;50865;-75
2023/08/06 02:39:39;;;;;;;;;;;;;;;23.62;48.73;100048.94;2300403;75;50260;-75
2023/08/06 02:42:39;;;;;;;;;;;;;;;23.62;48.72;100042.18;2322286;76;22363;-75
2023/08/06 02:45:41;;;;;;;;;;;;;;;23.62;48.70;100038.13;2292721;76;50651;-75
2023/08/06 02:48:42;;;;;;;;;;;;;;;23.61;48.70;100032.95;2257939;78;51143;-76
2023/08/06 02:51:45;;;;;;;;;;;;;;;23.61;48.71;100028.39;2258301;77;50341;-76
2023/08/06 02:54:47;;;;;;;;;;;;;;;23.61;48.72;100022.99;2277896;78;50668;-77
2023/08/06 02:57:48;;;;;;;;;;;;;;;23.61;48.69;100022.99;2258458;77;51472;-76
2023/08/06 03:01:02;;;;;;;;;;;;;;;23.61;48.70;100025.69;2258143;77;52308;-75
2023/08/06 03:04:04;;;;;;;;;;;;;;;23.61;48.67;100027.05;2277484;78;50713;-76
2023/08/06 03:07:05;;;;;;;;;;;;;;;23.61;48.69;100029.74;2258004;77;50121;-75
2023/08/06 03:10:07;;;;;;;;;;;;;;;23.61;48.72;100029.74;2258441;78;51470;-76
2023/08/06 03:13:09;;;;;;;;;;;;;;;23.60;48.68;100028.08;2272893;76;52335;-76
2023/08/06 03:16:10;;;;;;;;;;;;;;;23.59;48.72;100022.39;2285256;77;51498;-76
2023/08/06 03:19:12;;;;;;;;;;;;;;;23.60;48.70;100024.03;2307550;76;50227;-76
2023/08/06 03:22:13;;;;;;;;;;;;;;;23.59;48.68;100011.59;2307609;77;52326;-76
2023/08/06 03:25:15;;;;;;;;;;;;;;;23.60;48.68;100009.70;2307649;76;51527;-75
2023/08/06 03:28:17;;;;;;;;;;;;;;;23.59;48.67;99996.73;2309121;76;49874;-76
2023/08/06 03:31:18;;;;;;;;;;;;;;;23.59;48.69;100004.84;2309422;75;51549;-75
2023/08/06 03:34:20;;;;;;;;;;;;;;;23.59;48.71;99991.34;2309374;76;51534;-75
2023/08/06 03:37:21;;;;;;;;;;;;;;;23.59;48.66;99988.63;2309162;76;51476;-75
2023/08/06 03:40:23;;;;;;;;;;;;;;;23.58;48.68;99979.41;2309253;76;51552;-75
2023/08/06 03:43:25;;;;;;;;;;;;;;;23.59;48.67;99980.53;2309390;76;50628;-75
2023/08/06 03:46:26;;;;;;;;;;;;;;;23.59;48.69;99974.31;2321201;75;51514;-75
2023/08/06 03:49:28;;;;;;;;;;;;;;;23.61;48.69;99977.58;2283546;76;52710;-76
2023/08/06 03:52:29;;;;;;;;;;;;;;;23.59;48.67;99969.73;2309363;76;51469;-75
2023/08/06 03:55:31;;;;;;;;;;;;;;;23.59;48.64;99968.91;2309601;76;51413;-75
2023/08/06 03:58:32;;;;;;;;;;;;;;;23.58;48.67;99960.00;2307155;75;51435;-76
2023/08/06 04:01:34;;;;;;;;;;;;;;;23.58;48.66;99958.65;2297798;76;52408;-76
2023/08/06 04:04:36;;;;;;;;;;;;;;;23.58;48.66;99957.30;2295373;76;51557;-76
2023/08/06 04:07:37;;;;;;;;;;;;;;;23.57;48.67;99954.28;2319232;75;51439;-76
2023/08/06 04:10:39;;;;;;;;;;;;;;;23.58;48.66;99944.30;2295302;76;51496;-75
2023/08/06 04:13:42;;;;;;;;;;;;;;;23.57;48.68;99942.13;2308190;76;51207;-76
2023/08/06 04:16:44;;;;;;;;;;;;;;;23.58;48.67;99941.09;2319296;75;50479;-76
2023/08/06 04:19:45;;;;;;;;;;;;;;;23.57;48.67;99942.13;2319501;76;50254;-75
2023/08/06 04:22:47;;;;;;;;;;;;;;;23.57;48.66;99935.38;2295174;76;51482;-76
2023/08/06 04:25:48;;;;;;;;;;;;;;;23.57;48.67;99938.08;2307976;76;51183;-76
2023/08/06 04:28:50;;;;;;;;;;;;;;;23.56;48.69;99935.09;2319777;75;50263;-75
2023/08/06 04:31:52;;;;;;;;;;;;;;;23.57;48.68;99924.58;2302102;76;51427;-75
2023/08/06 04:34:55;;;;;;;;;;;;;;;23.57;48.68;99914.31;2321346;76;50226;-75
2023/08/06 04:37:56;;;;;;;;;;;;;;;23.56;48.68;99912.14;2308784;76;52388;-76
2023/08/06 04:40:58;;;;;;;;;;;;;;;23.57;48.68;99917.83;2309251;76;51423;-75
2023/08/06 04:44:00;;;;;;;;;;;;;;;23.57;48.68;99912.95;2321273;76;51505;-76
2023/08/06 04:47:02;;;;;;;;;;;;;;;23.57;48.65;99908.91;2308955;76;51339;-75
2023/08/06 04:50:03;;;;;;;;;;;;;;;23.56;48.67;99902.69;2283282;76;51791;-76
2023/08/06 04:53:05;;;;;;;;;;;;;;;23.57;48.66;99895.41;2309064;76;50158;-76
2023/08/06 04:56:06;;;;;;;;;;;;;;;23.56;48.67;99891.89;2309064;75;50469;-76
2023/08/06 04:59:08;;;;;;;;;;;;;;;23.56;48.69;99897.29;2317005;75;50771;-76
2023/08/06 05:02:10;;;;;;;;;;;;;;;23.56;48.69;99894.59;2297172;76;51204;-76
2023/08/06 05:05:11;;;;;;;;;;;;;;;23.56;48.66;99891.89;2321250;75;50274;-76
2023/08/06 05:08:16;;;;;;;;;;;;;;;23.56;48.67;99884.32;2308815;76;50537;-76
2023/08/06 05:11:18;;;;;;;;;;;;;;;23.55;48.67;99887.52;2321232;75;50335;-76
2023/08/06 05:14:19;;;;;;;;;;;;;;;23.56;48.66;99890.54;2283335;76;51082;-76
2023/08/06 05:17:22;;;;;;;;;;;;;;;23.56;48.67;99889.19;2308812;76;50265;-76
2023/08/06 05:20:24;;;;;;;;;;;;;;;23.56;48.68;99887.84;2309379;76;51590;-75
2023/08/06 05:23:26;;;;;;;;;;;;;;;23.55;48.68;99872.67;2309201;76;51442;-75
2023/08/06 05:26:27;;;;;;;;;;;;;;;23.56;48.66;99865.42;2308821;76;52341;-75
2023/08/06 05:29:29;;;;;;;;;;;;;;;23.55;48.67;99865.92;2295793;76;51413;-75
2023/08/06 05:32:30;;;;;;;;;;;;;;;23.55;48.68;99863.22;2311076;76;50237;-75
2023/08/06 05:35:32;;;;;;;;;;;;;;;23.55;48.68;99857.82;2321389;75;50114;-76
2023/08/06 05:38:34;;;;;;;;;;;;;;;23.55;48.70;99855.13;2283144;76;51228;-75
2023/08/06 05:41:35;;;;;;;;;;;;;;;23.54;48.69;99857.54;2309230;76;50542;-76
2023/08/06 05:44:37;;;;;;;;;;;;;;;23.55;48.67;99855.66;2309000;76;50555;-76
2023/08/06 05:47:38;;;;;;;;;;;;;;;23.56;48.68;99858.13;2320995;75;51580;-76
2023/08/06 05:50:40;;;;;;;;;;;;;;;23.55;48.70;99860.52;2321352;76;50653;-76
2023/08/06 05:53:41;;;;;;;;;;;;;;;23.55;48.71;99858.36;2309097;76;50766;-76
2023/08/06 05:56:43;;;;;;;;;;;;;;;23.56;48.71;99860.02;2308920;75;50610;-75
2023/08/06 05:59:45;;;;;;;;;;;;;;;23.55;48.68;99861.05;2307401;76;50859;-76
2023/08/06 06:02:46;;;;;;;;;;;;;;;23.56;48.68;99851.38;2300199;76;50257;-76
2023/08/06 06:05:48;;;;;;;;;;;;;;;23.55;48.72;99852.42;2274529;76;52748;-76
2023/08/06 06:08:49;;;;;;;;;;;;;;;23.56;48.68;99854.62;2321679;76;51319;-76
2023/08/06 06:11:51;;;;;;;;;;;;;;;23.56;48.70;99850.56;2321870;76;50685;-76
2023/08/06 06:14:53;;;;;;;;;;;;;;;23.55;48.71;99848.91;2274838;76;51154;-76
2023/08/06 06:17:54;;;;;;;;;;;;;;;23.56;48.68;99847.86;2321792;76;50621;-76
2023/08/06 06:20:56;;;;;;;;;;;;;;;23.55;48.70;99848.37;2300397;76;50624;-76
2023/08/06 06:23:57;;;;;;;;;;;;;;;23.55;48.72;99842.16;2300349;76;51443;-76
2023/08/06 06:26:59;;;;;;;;;;;;;;;23.55;48.72;99844.31;2300036;76;52529;-76
2023/08/06 06:30:01;;;;;;;;;;;;;;;23.55;48.71;99834.05;2303395;76;50720;-75
2023/08/06 06:33:02;;;;;;;;;;;;;;;23.55;48.70;99834.05;2295297;76;51470;-75
2023/08/06 06:36:04;;;;;;;;;;;;;;;23.55;48.71;99834.05;2319414;75;51437;-75
2023/08/06 06:39:05;;;;;;;;;;;;;;;23.56;48.71;99827.61;2307740;76;51664;-75
2023/08/06 06:42:07;;;;;;;;;;;;;;;23.55;48.71;99826.77;2319343;76;51418;-76
2023/08/06 06:45:09;;;;;;;;;;;;;;;23.55;48.72;99822.72;2319343;76;51473;-76
2023/08/06 06:48:11;;;;;;;;;;;;;;;23.54;48.72;99822.44;2319165;75;50743;-76
2023/08/06 06:51:12;;;;;;;;;;;;;;;23.55;48.73;99822.72;2269711;76;51246;-76
2023/08/06 06:54:14;;;;;;;;;;;;;;;23.56;48.73;99816.81;2295238;76;50328;-75
2023/08/06 06:57:15;;;;;;;;;;;;;;;23.54;48.72;99815.69;2319293;75;50305;-75
2023/08/06 07:00:17;;;;;;;;;;;;;;;23.55;48.72;99821.36;2321370;75;50646;-75
2023/08/06 07:03:20;;;;;;;;;;;;;;;23.55;48.73;99820.02;2299674;76;50634;-75
2023/08/06 07:06:21;;;;;;;;;;;;;;;23.53;48.74;99826.20;2298800;75;50050;-75
2023/08/06 07:09:23;;;;;;;;;;;;;;;23.55;48.73;99825.42;2333059;76;50261;-76
2023/08/06 07:12:24;;;;;;;;;;;;;;;23.56;48.74;99824.91;2299230;76;50002;-75
2023/08/06 07:15:26;;;;;;;;;;;;;;;23.55;48.73;99828.65;2333212;76;50227;-75
2023/08/06 07:18:28;;;;;;;;;;;;;;;23.55;48.74;99824.06;2298838;76;50337;-75
2023/08/06 07:21:29;;;;;;;;;;;;;;;23.55;48.74;99830.81;2299287;76;51502;-75
2023/08/06 07:24:31;;;;;;;;;;;;;;;23.55;48.76;99830.00;2333105;76;51460;-76
2023/08/06 07:27:33;;;;;;;;;;;;;;;23.55;48.76;99829.47;2273579;76;52292;-75
2023/08/06 07:30:34;;;;;;;;;;;;;;;23.54;48.75;99829.19;2323375;76;50327;-75
2023/08/06 07:33:36;;;;;;;;;;;;;;;23.54;48.78;99835.94;2295219;76;53768;-75
2023/08/06 07:36:38;;;;;;;;;;;;;;;23.54;48.79;99829.19;2319196;75;51512;-76
2023/08/06 07:39:41;;;;;;;;;;;;;;;23.55;48.74;99831.35;2307895;76;51144;-76
2023/08/06 07:42:43;;;;;;;;;;;;;;;23.57;48.72;99827.36;2319514;76;50658;-76
2023/08/06 07:45:44;;;;;;;;;;;;;;;23.55;48.75;99826.77;2295137;76;53164;-76
2023/08/06 07:48:46;;;;;;;;;;;;;;;23.56;48.75;99827.08;2319105;75;51448;-76
2023/08/06 07:51:48;;;;;;;;;;;;;;;23.55;48.74;99825.95;2269915;76;51218;-76
2023/08/06 07:54:49;;;;;;;;;;;;;;;23.54;48.76;99822.44;2269535;76;51137;-76
2023/08/06 07:57:51;;;;;;;;;;;;;;;23.55;48.75;99830.81;2294953;76;51522;-76
2023/08/06 08:00:52;;;;;;;;;;;;;;;23.54;48.76;99822.44;2314740;76;50299;-76
2023/08/06 08:03:54;;;;;;;;;;;;;;;23.54;48.79;99830.53;2258016;77;51417;-76
2023/08/06 08:06:56;;;;;;;;;;;;;;;23.53;48.79;99822.66;2258064;77;51550;-76
2023/08/06 08:09:57;;;;;;;;;;;;;;;23.52;48.78;99823.19;2258248;78;51446;-76
2023/08/06 08:12:59;;;;;;;;;;;;;;;23.54;48.80;99822.97;2277736;78;51450;-76
2023/08/06 08:16:02;;;;;;;;;;;;;;;23.53;48.76;99819.45;2258129;77;53746;-76
2023/08/06 08:19:03;;;;;;;;;;;;;;;23.53;48.77;99815.41;2258067;78;50324;-76
2023/08/06 08:22:05;;;;;;;;;;;;;;;23.53;48.76;99812.70;2277685;77;51480;-76
2023/08/06 08:25:07;;;;;;;;;;;;;;;23.53;48.76;99811.86;2277631;77;51551;-76
2023/08/06 08:28:09;;;;;;;;;;;;;;;23.54;48.75;99807.58;2235115;76;51058;-76
2023/08/06 08:31:11;;;;;;;;;;;;;;;23.54;48.79;99807.58;2297392;76;50077;-76
2023/08/06 08:34:12;;;;;;;;;;;;;;;23.53;48.81;99793.80;2295416;76;50688;-75
2023/08/06 08:37:14;;;;;;;;;;;;;;;23.54;48.80;99793.27;2319203;75;50730;-77
2023/08/06 08:40:16;;;;;;;;;;;;;;;23.55;48.81;99789.50;2307767;76;51648;-75
2023/08/06 08:43:17;;;;;;;;;;;;;;;23.55;48.81;99788.14;2295169;76;50628;-76
2023/08/06 08:46:19;;;;;;;;;;;;;;;23.55;48.82;99783.56;2319113;75;50737;-75
2023/08/06 08:49:22;;;;;;;;;;;;;;;23.56;48.82;99785.75;2319471;76;50370;-75
2023/08/06 08:52:23;;;;;;;;;;;;;;;23.56;48.82;99777.66;2319368;76;51558;-75
2023/08/06 08:55:25;;;;;;;;;;;;;;;23.56;48.83;99773.07;2319451;76;51498;-76
2023/08/06 08:58:27;;;;;;;;;;;;;;;23.54;48.83;99768.42;2319433;75;50637;-76
2023/08/06 09:01:28;;;;;;;;;;;;;;;23.56;48.82;99765.50;2321025;76;51410;-76
2023/08/06 09:04:36;;;;;;;;;;;;;;;23.56;48.85;99762.80;2269852;76;52435;-76
2023/08/06 09:07:35;;;;;;;;;;;;;;;23.55;48.85;99759.25;2293489;76;22730;-76
2023/08/06 09:10:38;;;;;;;;;;;;;;;23.55;48.84;99751.16;2319315;76;51495;-76
2023/08/06 09:13:40;;;;;;;;;;;;;;;23.57;48.84;99750.39;2319293;76;50716;-76
2023/08/06 09:16:41;;;;;;;;;;;;;;;23.57;48.84;99747.70;2269499;75;51274;-76
2023/08/06 09:19:48;;;;;;;;;;;;;;;23.56;48.85;99739.31;2295218;76;50391;-76
2023/08/06 09:22:49;;;;;;;;;;;;;;;23.57;48.84;99745.00;2319436;76;52347;-77
2023/08/06 09:25:51;;;;;;;;;;;;;;;23.57;48.85;99741.48;2295178;76;51343;-75
2023/08/06 09:28:53;;;;;;;;;;;;;;;23.56;48.89;99739.31;2304162;76;49583;-75
2023/08/06 09:31:54;;;;;;;;;;;;;;;23.57;48.87;99734.19;2309910;76;51410;-75
2023/08/06 09:34:56;;;;;;;;;;;;;;;23.57;48.89;99727.44;2319489;76;51477;-76
2023/08/06 09:38:08;;;;;;;;;;;;;;;23.57;48.91;99729.33;2294798;76;50686;-76
2023/08/06 09:41:10;;;;;;;;;;;;;;;23.56;48.92;99721.77;2270074;76;51231;-76
2023/08/06 09:44:18;;;;;;;;;;;;;;;23.57;48.93;99719.87;2295213;76;50538;-76
2023/08/06 09:47:22;;;;;;;;;;;;;;;23.56;48.93;99715.55;2319266;75;51502;-76
2023/08/06 09:50:23;;;;;;;;;;;;;;;23.56;48.92;99717.71;2295545;76;22476;-76
2023/08/06 09:53:26;;;;;;;;;;;;;;;23.56;48.94;99708.26;2295074;76;52510;-76
2023/08/06 09:56:28;;;;;;;;;;;;;;;23.57;48.94;99708.54;2319334;75;50349;-76
2023/08/06 09:59:29;;;;;;;;;;;;;;;23.56;48.95;99710.96;2320242;76;51063;-76
2023/08/06 10:02:31;;;;;;;;;;;;;;;23.56;48.93;99704.74;2320558;76;51531;-76
2023/08/06 10:05:32;;;;;;;;;;;;;;;23.56;48.96;99699.34;2307911;76;51682;-76
2023/08/06 10:08:34;;;;;;;;;;;;;;;23.56;48.94;99698.00;2319118;75;50501;-75
2023/08/06 10:11:37;;;;;;;;;;;;;;;23.56;48.95;99701.52;2295226;76;51500;-76
2023/08/06 10:14:39;;;;;;;;;;;;;;;23.56;48.94;99697.45;2318014;76;52188;-76
2023/08/06 10:17:44;;;;;;;;;;;;;;;23.54;48.96;99698.76;2307793;76;51805;-76
2023/08/06 10:20:45;;;;;;;;;;;;;;;23.54;48.97;99696.05;2319523;76;51591;-76
2023/08/06 10:23:49;;;;;;;;;;;;;;;23.54;48.97;99685.25;2319498;76;52370;-76
2023/08/06 10:26:50;;;;;;;;;;;;;;;23.54;48.95;99693.36;2294973;75;50318;-76
2023/08/06 10:29:52;;;;;;;;;;;;;;;23.54;48.96;99688.77;2320647;76;50432;-76
2023/08/06 10:32:54;;;;;;;;;;;;;;;23.52;48.98;99681.44;2320392;76;50407;-76
2023/08/06 10:35:55;;;;;;;;;;;;;;;23.53;48.96;99684.44;2319461;75;51530;-76
2023/08/06 10:38:57;;;;;;;;;;;;;;;23.53;48.93;99685.80;2294977;76;50318;-76
2023/08/06 10:41:59;;;;;;;;;;;;;;;23.53;48.93;99680.90;2295418;76;50263;-76
2023/08/06 10:45:16;;;;;;;;;;;;;;;23.51;48.96;99687.09;2319540;76;51474;-75
2023/08/06 10:48:19;;;;;;;;;;;;;;;23.52;48.94;99681.97;2319240;75;50419;-76
2023/08/06 10:51:21;;;;;;;;;;;;;;;23.53;48.91;99687.14;2316710;76;50475;-76
2023/08/06 10:54:23;;;;;;;;;;;;;;;23.52;48.92;99678.73;2270067;76;51312;-75
2023/08/06 10:57:25;;;;;;;;;;;;;;;23.54;48.91;99673.11;2307842;76;52429;-76
2023/08/06 11:00:26;;;;;;;;;;;;;;;23.54;48.92;99675.27;2320586;76;51576;-76
2023/08/06 11:03:28;;;;;;;;;;;;;;;23.53;48.93;99668.24;2271076;78;51386;-76
2023/08/06 11:06:30;;;;;;;;;;;;;;;23.54;48.93;99658.25;2280392;76;50652;-76
2023/08/06 11:09:31;;;;;;;;;;;;;;;23.54;48.92;99660.42;2280467;78;51448;-76
2023/08/06 11:12:33;;;;;;;;;;;;;;;23.54;48.94;99655.55;2268939;78;52394;-76
2023/08/06 11:15:35;;;;;;;;;;;;;;;23.53;48.93;99656.59;2280546;77;50409;-76
2023/08/06 11:18:36;;;;;;;;;;;;;;;23.55;48.96;99651.78;2268551;77;51532;-76
2023/08/06 11:21:38;;;;;;;;;;;;;;;23.54;48.97;99647.45;2280578;77;51331;-76
2023/08/06 11:24:39;;;;;;;;;;;;;;;23.54;48.99;99648.80;2268979;76;51492;-76
2023/08/06 11:27:41;;;;;;;;;;;;;;;23.55;48.97;99649.89;2280654;76;50731;-76
2023/08/06 11:30:43;;;;;;;;;;;;;;;23.53;48.97;99631.79;2315047;75;50652;-76
2023/08/06 11:33:44;;;;;;;;;;;;;;;23.54;48.99;99626.66;2319888;76;51429;-77
2023/08/06 11:36:46;;;;;;;;;;;;;;;23.54;48.98;99626.66;2319288;75;51566;-75
2023/08/06 11:39:50;;;;;;;;;;;;;;;23.55;48.98;99622.89;2319435;76;51456;-76
2023/08/06 11:42:53;;;;;;;;;;;;;;;23.55;48.99;99622.89;2308169;76;51285;-76
2023/08/06 11:45:56;;;;;;;;;;;;;;;23.56;48.98;99621.85;2319865;75;51541;-75
2023/08/06 11:48:58;;;;;;;;;;;;;;;23.55;48.98;99616.14;2319430;76;50700;-75
2023/08/06 11:51:59;;;;;;;;;;;;;;;23.56;48.97;99611.59;2295489;76;51551;-76
2023/08/06 11:55:13;;;;;;;;;;;;;;;23.55;48.99;99605.88;2307988;76;50851;-76
2023/08/06 11:58:17;;;;;;;;;;;;;;;23.56;48.97;99603.48;2319672;75;49795;-76
2023/08/06 12:01:19;;;;;;;;;;;;;;;23.55;49.00;99601.83;2322788;76;51608;-76
2023/08/06 12:04:20;;;;;;;;;;;;;;;23.56;48.99;99610.23;2319889;76;50084;-76
2023/08/06 12:07:23;;;;;;;;;;;;;;;23.56;48.97;99604.30;2308014;76;51347;-75
2023/08/06 12:10:25;;;;;;;;;;;;;;;23.55;49.00;99593.19;2319231;76;50280;-76
2023/08/06 12:13:27;;;;;;;;;;;;;;;23.56;49.01;99592.14;2295418;76;51714;-75
2023/08/06 12:16:28;;;;;;;;;;;;;;;23.55;49.00;99590.48;2295142;75;51470;-76
2023/08/06 12:19:30;;;;;;;;;;;;;;;23.55;49.02;99590.48;2270057;76;53244;-75
2023/08/06 12:22:35;;;;;;;;;;;;;;;23.55;49.02;99585.09;2295372;76;51459;-76
2023/08/06 12:25:35;;;;;;;;;;;;;;;23.56;49.02;99584.58;2295617;76;23138;-76
2023/08/06 12:28:37;;;;;;;;;;;;;;;23.56;49.00;99586.75;2321474;75;50269;-76
2023/08/06 12:31:38;;;;;;;;;;;;;;;23.56;49.00;99588.09;2300705;76;49838;-75
2023/08/06 12:34:40;;;;;;;;;;;;;;;23.54;49.08;99588.86;2299667;76;51162;-75
2023/08/06 12:37:43;;;;;;;;;;;;;;;23.54;49.06;99586.16;2298699;76;50097;-75
2023/08/06 12:40:45;;;;;;;;;;;;;;;23.55;49.06;99590.48;2320655;76;50731;-75
2023/08/06 12:43:46;;;;;;;;;;;;;;;23.56;49.05;99591.33;2320987;76;50616;-75
2023/08/06 12:46:48;;;;;;;;;;;;;;;23.55;49.07;99589.14;2308530;75;52457;-74
2023/08/06 12:49:50;;;;;;;;;;;;;;;23.55;49.07;99585.09;2323075;75;50514;-74
2023/08/06 12:52:51;;;;;;;;;;;;;;;23.53;49.10;99581.83;2312091;76;50622;-75
2023/08/06 12:55:53;;;;;;;;;;;;;;;23.54;49.09;99586.70;2324174;75;50621;-75
2023/08/06 12:58:54;;;;;;;;;;;;;;;23.53;49.08;99588.59;2309303;76;51702;-75
2023/08/06 13:01:56;;;;;;;;;;;;;;;23.53;49.09;99584.53;2321540;76;51400;-75
2023/08/06 13:04:58;;;;;;;;;;;;;;;23.54;49.08;99578.06;2308962;76;51628;-75
2023/08/06 13:07:59;;;;;;;;;;;;;;;23.53;49.08;99580.99;2323222;75;50145;-75
2023/08/06 13:11:01;;;;;;;;;;;;;;;23.53;49.10;99573.73;2283581;75;51671;-75
2023/08/06 13:14:06;;;;;;;;;;;;;;;23.54;49.11;99578.59;2309242;76;50069;-75
2023/08/06 13:17:09;;;;;;;;;;;;;;;23.54;49.10;99581.30;2321081;75;50687;-74
2023/08/06 13:20:11;;;;;;;;;;;;;;;23.52;49.11;99582.87;2321471;76;51459;-75
2023/08/06 13:23:15;;;;;;;;;;;;;;;23.52;49.10;99582.87;2309625;76;50795;-76
2023/08/06 13:26:16;;;;;;;;;;;;;;;23.51;49.14;99578.55;2309773;75;22331;-75
2023/08/06 13:29:17;;;;;;;;;;;;;;;23.51;49.11;99578.55;2321663;76;50701;-76
2023/08/06 13:32:19;;;;;;;;;;;;;;;23.52;49.12;99572.08;2311609;76;51661;-75
2023/08/06 13:35:21;;;;;;;;;;;;;;;23.51;49.15;99572.34;2304541;76;52617;-75
2023/08/06 13:38:22;;;;;;;;;;;;;;;23.51;49.12;99566.41;2321685;75;51422;-76
2023/08/06 13:41:24;;;;;;;;;;;;;;;23.51;49.14;99573.15;2321539;76;51508;-76
2023/08/06 13:44:25;;;;;;;;;;;;;;;23.50;49.13;99566.09;2309319;76;51428;-76
2023/08/06 13:47:27;;;;;;;;;;;;;;;23.50;49.12;99570.68;2309098;76;50389;-76
2023/08/06 13:50:29;;;;;;;;;;;;;;;23.50;49.13;99571.49;2321481;76;50348;-75
2023/08/06 13:53:30;;;;;;;;;;;;;;;23.52;49.08;99575.31;2321646;76;51633;-76
2023/08/06 13:56:32;;;;;;;;;;;;;;;23.51;49.07;99578.55;2321033;75;50202;-75
2023/08/06 13:59:34;;;;;;;;;;;;;;;23.49;49.09;99567.17;2309244;76;52596;-75
2023/08/06 14:02:35;;;;;;;;;;;;;;;23.50;49.08;99567.45;2305468;76;51452;-75
2023/08/06 14:05:37;;;;;;;;;;;;;;;23.50;49.09;99567.98;2285121;76;51487;-74
2023/08/06 14:08:39;;;;;;;;;;;;;;;23.50;49.08;99567.45;2277521;77;51539;-76
2023/08/06 14:11:40;;;;;;;;;;;;;;;23.50;49.08;99571.49;2233595;78;51709;-75
2023/08/06 14:14:42;;;;;;;;;;;;;;;23.50;49.08;99573.38;2277769;78;52348;-75
2023/08/06 14:17:44;;;;;;;;;;;;;;;23.49;49.08;99565.81;2258188;77;50725;-75
2023/08/06 14:20:46;;;;;;;;;;;;;;;23.49;49.09;99568.52;2258236;78;50490;-75
2023/08/06 14:23:47;;;;;;;;;;;;;;;23.47;49.08;99567.94;2277860;77;50631;-74
2023/08/06 14:26:49;;;;;;;;;;;;;;;23.49;49.07;99567.17;2260998;77;50746;-74
2023/08/06 14:29:51;;;;;;;;;;;;;;;23.48;49.05;99568.23;2280196;77;50441;-75
2023/08/06 14:32:52;;;;;;;;;;;;;;;23.47;49.06;99570.09;2292127;76;50338;-75
2023/08/06 14:35:54;;;;;;;;;;;;;;;23.47;49.03;99575.50;2315307;75;50653;-75
2023/08/06 14:38:55;;;;;;;;;;;;;;;23.47;49.04;99580.89;2319379;76;50792;-76
2023/08/06 14:41:57;;;;;;;;;;;;;;;23.48;49.04;99574.45;2305313;76;50342;-75
2023/08/06 14:44:58;;;;;;;;;;;;;;;23.46;49.05;99568.47;2321507;76;50647;-75
2023/08/06 14:48:00;;;;;;;;;;;;;;;23.47;49.03;99576.03;2301500;76;51003;-75
2023/08/06 14:51:02;;;;;;;;;;;;;;;23.46;49.05;99574.41;2335493;75;50358;-78
2023/08/06 14:54:03;;;;;;;;;;;;;;;23.49;49.18;99573.91;2310569;76;50400;-78
2023/08/06 14:57:05;;;;;;;;;;;;;;;23.48;49.17;99574.45;2322136;75;50344;-78
2023/08/06 15:00:09;;;;;;;;;;;;;;;23.46;49.43;99570.36;2321846;76;50221;-77
2023/08/06 15:03:10;;;;;;;;;;;;;;;23.48;49.23;99565.00;2307750;76;22340;-79
2023/08/06 15:06:12;;;;;;;;;;;;;;;23.47;49.44;99570.09;2309346;75;50303;-78
2023/08/06 15:09:14;;;;;;;;;;;;;;;23.51;49.38;99575.03;2321436;76;51524;-76
2023/08/06 15:12:17;;;;;;;;;;;;;;;23.50;49.38;99566.09;2309265;76;51162;-76
2023/08/06 15:15:18;;;;;;;;;;;;;;;23.50;49.51;99563.93;2309526;76;51614;-76
2023/08/06 15:18:20;;;;;;;;;;;;;;;23.50;49.34;99563.39;2283214;76;52380;-76
2023/08/06 15:21:22;;;;;;;;;;;;;;;23.49;49.33;99559.06;2321475;75;51386;-76
2023/08/06 15:24:23;;;;;;;;;;;;;;;23.50;49.42;99562.58;2309063;76;51053;-76
2023/08/06 15:27:25;;;;;;;;;;;;;;;23.50;49.35;99559.88;2309055;76;52290;-76
2023/08/06 15:30:27;;;;;;;;;;;;;;;23.49;49.40;99559.06;2321418;76;51418;-76
2023/08/06 15:33:28;;;;;;;;;;;;;;;23.49;49.37;99568.52;2298059;76;51442;-75
2023/08/06 15:36:30;;;;;;;;;;;;;;;23.50;49.36;99569.33;2261176;76;50824;-75
2023/08/06 15:39:31;;;;;;;;;;;;;;;23.48;49.43;99571.75;2302141;76;50261;-76
2023/08/06 15:42:33;;;;;;;;;;;;;;;23.48;49.37;99573.64;2309285;76;50248;-76
2023/08/06 15:45:34;;;;;;;;;;;;;;;23.50;49.36;99582.30;2283398;76;51377;-75